sensor_id;sensor_type;location;lat;lon;timestamp;P1;durP1;ratioP1;P2;durP2;ratioP2
8929;SDS011;4500;49.074;9.110;2023-04-24T00:02:12;0.60;;;0.60;;
8929;SDS011;4500;49.074;9.110;2023-04-24T00:04:42;0.70;;;0.70;;
8929;SDS011;4500;49.074;9.110;2023-04-24T00:07:12;0.60;;;0.60;;
8929;SDS011;4500;49.074;9.110;2023-04-24T00:09:39;0.77;;;0.77;;
8929;SDS011;4500;49.074;9.110;2023-04-24T00:12:09;0.60;;;0.60;;
8929;SDS011;4500;49.074;9.110;2023-04-24T00:14:36;0.70;;;0.70;;
8929;SDS011;4500;49.074;9.110;2023-04-24T00:17:03;0.80;;;0.80;;
8929;SDS011;4500;49.074;9.110;2023-04-24T00:19:31;1.77;;;1.77;;
8929;SDS011;4500;49.074;9.110;2023-04-24T00:21:58;2.03;;;1.93;;
8929;SDS011;4500;49.074;9.110;2023-04-24T00:24:26;2.10;;;2.00;;
8929;SDS011;4500;49.074;9.110;2023-04-24T00:26:53;2.40;;;2.30;;
8929;SDS011;4500;49.074;9.110;2023-04-24T00:29:21;3.47;;;3.37;;
8929;SDS011;4500;49.074;9.110;2023-04-24T00:31:49;2.50;;;2.40;;
8929;SDS011;4500;49.074;9.110;2023-04-24T00:34:16;0.87;;;0.87;;
8929;SDS011;4500;49.074;9.110;2023-04-24T00:36:44;0.90;;;0.90;;
8929;SDS011;4500;49.074;9.110;2023-04-24T00:39:12;0.60;;;0.60;;
8929;SDS011;4500;49.074;9.110;2023-04-24T00:41:40;0.73;;;0.73;;
8929;SDS011;4500;49.074;9.110;2023-04-24T00:44:09;0.70;;;0.70;;
8929;SDS011;4500;49.074;9.110;2023-04-24T00:46:37;0.77;;;0.77;;
8929;SDS011;4500;49.074;9.110;2023-04-24T00:49:04;0.70;;;0.70;;
8929;SDS011;4500;49.074;9.110;2023-04-24T00:51:35;0.80;;;0.80;;
8929;SDS011;4500;49.074;9.110;2023-04-24T00:54:03;0.83;;;0.83;;
8929;SDS011;4500;49.074;9.110;2023-04-24T00:56:31;1.77;;;1.73;;
8929;SDS011;4500;49.074;9.110;2023-04-24T00:58:58;2.30;;;2.20;;
8929;SDS011;4500;49.074;9.110;2023-04-24T01:01:26;2.30;;;2.20;;
8929;SDS011;4500;49.074;9.110;2023-04-24T01:03:53;2.60;;;2.50;;
8929;SDS011;4500;49.074;9.110;2023-04-24T01:06:21;3.03;;;2.93;;
8929;SDS011;4500;49.074;9.110;2023-04-24T01:08:49;1.07;;;1.07;;
8929;SDS011;4500;49.074;9.110;2023-04-24T01:11:16;1.07;;;1.07;;
8929;SDS011;4500;49.074;9.110;2023-04-24T01:13:44;1.43;;;1.37;;
8929;SDS011;4500;49.074;9.110;2023-04-24T01:16:13;0.70;;;0.70;;
8929;SDS011;4500;49.074;9.110;2023-04-24T01:18:44;1.13;;;1.13;;
8929;SDS011;4500;49.074;9.110;2023-04-24T01:21:13;0.60;;;0.60;;
8929;SDS011;4500;49.074;9.110;2023-04-24T01:23:43;0.70;;;0.70;;
8929;SDS011;4500;49.074;9.110;2023-04-24T01:26:12;0.60;;;0.60;;
8929;SDS011;4500;49.074;9.110;2023-04-24T01:28:41;0.80;;;0.80;;
8929;SDS011;4500;49.074;9.110;2023-04-24T01:31:08;0.60;;;0.60;;
8929;SDS011;4500;49.074;9.110;2023-04-24T01:33:36;0.73;;;0.73;;
8929;SDS011;4500;49.074;9.110;2023-04-24T01:36:04;0.80;;;0.80;;
8929;SDS011;4500;49.074;9.110;2023-04-24T01:38:31;1.87;;;1.77;;
8929;SDS011;4500;49.074;9.110;2023-04-24T01:40:59;2.67;;;2.57;;
8929;SDS011;4500;49.074;9.110;2023-04-24T01:43:26;2.30;;;2.20;;
8929;SDS011;4500;49.074;9.110;2023-04-24T01:45:54;2.90;;;2.80;;
8929;SDS011;4500;49.074;9.110;2023-04-24T01:48:21;3.47;;;3.33;;
8929;SDS011;4500;49.074;9.110;2023-04-24T01:50:49;1.37;;;1.33;;
8929;SDS011;4500;49.074;9.110;2023-04-24T01:53:16;1.30;;;1.27;;
8929;SDS011;4500;49.074;9.110;2023-04-24T01:55:44;1.10;;;1.10;;
8929;SDS011;4500;49.074;9.110;2023-04-24T01:58:11;0.57;;;0.57;;
8929;SDS011;4500;49.074;9.110;2023-04-24T02:00:40;0.80;;;0.80;;
8929;SDS011;4500;49.074;9.110;2023-04-24T02:03:08;0.60;;;0.60;;
8929;SDS011;4500;49.074;9.110;2023-04-24T02:05:36;0.60;;;0.60;;
8929;SDS011;4500;49.074;9.110;2023-04-24T02:08:03;0.80;;;0.80;;
8929;SDS011;4500;49.074;9.110;2023-04-24T02:10:31;2.20;;;2.10;;
8929;SDS011;4500;49.074;9.110;2023-04-24T02:12:58;2.50;;;2.40;;
8929;SDS011;4500;49.074;9.110;2023-04-24T02:15:27;2.50;;;2.40;;
8929;SDS011;4500;49.074;9.110;2023-04-24T02:17:54;2.30;;;2.20;;
8929;SDS011;4500;49.074;9.110;2023-04-24T02:20:22;2.50;;;2.40;;
8929;SDS011;4500;49.074;9.110;2023-04-24T02:22:49;2.53;;;2.43;;
8929;SDS011;4500;49.074;9.110;2023-04-24T02:25:17;1.60;;;1.50;;
8929;SDS011;4500;49.074;9.110;2023-04-24T02:27:44;1.40;;;1.37;;
8929;SDS011;4500;49.074;9.110;2023-04-24T02:30:12;0.67;;;0.67;;
8929;SDS011;4500;49.074;9.110;2023-04-24T02:32:40;1.90;;;1.83;;
8929;SDS011;4500;49.074;9.110;2023-04-24T02:35:09;0.60;;;0.60;;
8929;SDS011;4500;49.074;9.110;2023-04-24T02:37:37;1.10;;;1.10;;
8929;SDS011;4500;49.074;9.110;2023-04-24T02:40:05;0.67;;;0.67;;
8929;SDS011;4500;49.074;9.110;2023-04-24T02:42:33;0.77;;;0.77;;
8929;SDS011;4500;49.074;9.110;2023-04-24T02:45:01;1.57;;;1.57;;
8929;SDS011;4500;49.074;9.110;2023-04-24T02:47:28;2.40;;;2.30;;
8929;SDS011;4500;49.074;9.110;2023-04-24T02:49:56;2.70;;;2.60;;
8929;SDS011;4500;49.074;9.110;2023-04-24T02:52:23;2.93;;;2.83;;
8929;SDS011;4500;49.074;9.110;2023-04-24T02:54:51;2.47;;;2.37;;
8929;SDS011;4500;49.074;9.110;2023-04-24T02:57:20;2.60;;;2.50;;
8929;SDS011;4500;49.074;9.110;2023-04-24T02:59:47;2.30;;;2.20;;
8929;SDS011;4500;49.074;9.110;2023-04-24T03:02:14;1.03;;;1.03;;
8929;SDS011;4500;49.074;9.110;2023-04-24T03:04:42;0.80;;;0.80;;
8929;SDS011;4500;49.074;9.110;2023-04-24T03:07:10;0.67;;;0.67;;
8929;SDS011;4500;49.074;9.110;2023-04-24T03:09:38;0.90;;;0.90;;
8929;SDS011;4500;49.074;9.110;2023-04-24T03:12:05;0.60;;;0.60;;
8929;SDS011;4500;49.074;9.110;2023-04-24T03:14:33;1.00;;;1.00;;
8929;SDS011;4500;49.074;9.110;2023-04-24T03:17:01;1.73;;;1.70;;
8929;SDS011;4500;49.074;9.110;2023-04-24T03:19:29;2.80;;;2.70;;
8929;SDS011;4500;49.074;9.110;2023-04-24T03:21:56;2.73;;;2.63;;
8929;SDS011;4500;49.074;9.110;2023-04-24T03:24:25;2.40;;;2.30;;
8929;SDS011;4500;49.074;9.110;2023-04-24T03:26:54;2.53;;;2.43;;
8929;SDS011;4500;49.074;9.110;2023-04-24T03:29:23;2.80;;;2.70;;
8929;SDS011;4500;49.074;9.110;2023-04-24T03:31:50;3.87;;;3.67;;
8929;SDS011;4500;49.074;9.110;2023-04-24T03:34:18;3.10;;;3.00;;
8929;SDS011;4500;49.074;9.110;2023-04-24T03:36:46;1.00;;;1.00;;
8929;SDS011;4500;49.074;9.110;2023-04-24T03:39:16;1.13;;;1.10;;
8929;SDS011;4500;49.074;9.110;2023-04-24T03:41:44;1.03;;;1.03;;
8929;SDS011;4500;49.074;9.110;2023-04-24T03:44:11;0.70;;;0.70;;
8929;SDS011;4500;49.074;9.110;2023-04-24T03:46:40;1.03;;;1.03;;
8929;SDS011;4500;49.074;9.110;2023-04-24T03:49:10;0.60;;;0.60;;
8929;SDS011;4500;49.074;9.110;2023-04-24T03:51:38;0.70;;;0.70;;
8929;SDS011;4500;49.074;9.110;2023-04-24T03:54:05;0.67;;;0.67;;
8929;SDS011;4500;49.074;9.110;2023-04-24T03:56:32;1.00;;;1.00;;
8929;SDS011;4500;49.074;9.110;2023-04-24T03:59:00;2.50;;;2.40;;
8929;SDS011;4500;49.074;9.110;2023-04-24T04:01:27;2.40;;;2.30;;
8929;SDS011;4500;49.074;9.110;2023-04-24T04:03:55;2.77;;;2.67;;
8929;SDS011;4500;49.074;9.110;2023-04-24T04:06:23;2.90;;;2.80;;
8929;SDS011;4500;49.074;9.110;2023-04-24T04:08:50;2.53;;;2.43;;
8929;SDS011;4500;49.074;9.110;2023-04-24T04:11:18;3.07;;;2.97;;
8929;SDS011;4500;49.074;9.110;2023-04-24T04:13:45;1.53;;;1.47;;
8929;SDS011;4500;49.074;9.110;2023-04-24T04:16:14;1.10;;;1.10;;
8929;SDS011;4500;49.074;9.110;2023-04-24T04:18:44;1.17;;;1.13;;
8929;SDS011;4500;49.074;9.110;2023-04-24T04:21:12;0.83;;;0.83;;
8929;SDS011;4500;49.074;9.110;2023-04-24T04:23:39;0.70;;;0.70;;
8929;SDS011;4500;49.074;9.110;2023-04-24T04:26:07;0.80;;;0.80;;
8929;SDS011;4500;49.074;9.110;2023-04-24T04:28:34;0.70;;;0.70;;
8929;SDS011;4500;49.074;9.110;2023-04-24T04:31:02;1.47;;;1.47;;
8929;SDS011;4500;49.074;9.110;2023-04-24T04:33:29;2.90;;;2.80;;
8929;SDS011;4500;49.074;9.110;2023-04-24T04:35:57;2.50;;;2.40;;
8929;SDS011;4500;49.074;9.110;2023-04-24T04:38:24;3.37;;;3.27;;
8929;SDS011;4500;49.074;9.110;2023-04-24T04:40:56;3.23;;;3.13;;
8929;SDS011;4500;49.074;9.110;2023-04-24T04:43:24;3.07;;;2.97;;
8929;SDS011;4500;49.074;9.110;2023-04-24T04:45:51;4.10;;;3.90;;
8929;SDS011;4500;49.074;9.110;2023-04-24T04:48:21;3.57;;;3.43;;
8929;SDS011;4500;49.074;9.110;2023-04-24T04:50:48;3.17;;;3.07;;
8929;SDS011;4500;49.074;9.110;2023-04-24T04:53:16;1.57;;;1.50;;
8929;SDS011;4500;49.074;9.110;2023-04-24T04:55:44;0.70;;;0.70;;
8929;SDS011;4500;49.074;9.110;2023-04-24T04:58:13;0.80;;;0.80;;
8929;SDS011;4500;49.074;9.110;2023-04-24T05:00:40;0.80;;;0.80;;
8929;SDS011;4500;49.074;9.110;2023-04-24T05:03:08;0.80;;;0.80;;
8929;SDS011;4500;49.074;9.110;2023-04-24T05:05:46;1.13;;;1.10;;
8929;SDS011;4500;49.074;9.110;2023-04-24T05:08:13;0.70;;;0.70;;
8929;SDS011;4500;49.074;9.110;2023-04-24T05:10:52;3.60;;;3.43;;
8929;SDS011;4500;49.074;9.110;2023-04-24T05:13:20;1.57;;;1.47;;
8929;SDS011;4500;49.074;9.110;2023-04-24T05:16:04;0.90;;;0.90;;
8929;SDS011;4500;49.074;9.110;2023-04-24T05:18:31;2.10;;;2.00;;
8929;SDS011;4500;49.074;9.110;2023-04-24T05:20:59;2.93;;;2.83;;
8929;SDS011;4500;49.074;9.110;2023-04-24T05:23:26;2.40;;;2.30;;
8929;SDS011;4500;49.074;9.110;2023-04-24T05:25:53;3.00;;;2.90;;
8929;SDS011;4500;49.074;9.110;2023-04-24T05:28:21;4.03;;;3.83;;
8929;SDS011;4500;49.074;9.110;2023-04-24T05:30:48;2.70;;;2.60;;
8929;SDS011;4500;49.074;9.110;2023-04-24T05:33:16;1.40;;;1.37;;
8929;SDS011;4500;49.074;9.110;2023-04-24T05:35:43;0.60;;;0.60;;
8929;SDS011;4500;49.074;9.110;2023-04-24T05:38:13;0.70;;;0.70;;
8929;SDS011;4500;49.074;9.110;2023-04-24T05:40:44;0.73;;;0.73;;
8929;SDS011;4500;49.074;9.110;2023-04-24T05:43:12;0.80;;;0.80;;
8929;SDS011;4500;49.074;9.110;2023-04-24T05:45:40;0.80;;;0.80;;
8929;SDS011;4500;49.074;9.110;2023-04-24T05:48:08;0.73;;;0.73;;
8929;SDS011;4500;49.074;9.110;2023-04-24T05:50:35;0.70;;;0.70;;
8929;SDS011;4500;49.074;9.110;2023-04-24T05:53:03;1.00;;;1.00;;
8929;SDS011;4500;49.074;9.110;2023-04-24T05:55:31;2.37;;;2.27;;
8929;SDS011;4500;49.074;9.110;2023-04-24T05:57:58;2.80;;;2.70;;
8929;SDS011;4500;49.074;9.110;2023-04-24T06:00:26;2.80;;;2.70;;
8929;SDS011;4500;49.074;9.110;2023-04-24T06:02:54;2.87;;;2.77;;
8929;SDS011;4500;49.074;9.110;2023-04-24T06:05:22;3.70;;;3.53;;
8929;SDS011;4500;49.074;9.110;2023-04-24T06:07:50;1.97;;;1.87;;
8929;SDS011;4500;49.074;9.110;2023-04-24T06:10:17;1.77;;;1.67;;
8929;SDS011;4500;49.074;9.110;2023-04-24T06:12:45;1.20;;;1.17;;
8929;SDS011;4500;49.074;9.110;2023-04-24T06:15:12;0.70;;;0.70;;
8929;SDS011;4500;49.074;9.110;2023-04-24T06:17:40;0.80;;;0.80;;
8929;SDS011;4500;49.074;9.110;2023-04-24T06:20:09;0.63;;;0.63;;
8929;SDS011;4500;49.074;9.110;2023-04-24T06:22:39;0.80;;;0.80;;
8929;SDS011;4500;49.074;9.110;2023-04-24T06:25:07;0.70;;;0.70;;
8929;SDS011;4500;49.074;9.110;2023-04-24T06:27:34;0.80;;;0.80;;
8929;SDS011;4500;49.074;9.110;2023-04-24T06:30:02;1.50;;;1.47;;
8929;SDS011;4500;49.074;9.110;2023-04-24T06:32:30;2.20;;;2.10;;
8929;SDS011;4500;49.074;9.110;2023-04-24T06:34:57;2.60;;;2.50;;
8929;SDS011;4500;49.074;9.110;2023-04-24T06:37:25;2.30;;;2.20;;
8929;SDS011;4500;49.074;9.110;2023-04-24T06:39:52;2.50;;;2.40;;
8929;SDS011;4500;49.074;9.110;2023-04-24T06:42:20;1.73;;;1.63;;
8929;SDS011;4500;49.074;9.110;2023-04-24T06:44:48;2.73;;;2.63;;
8929;SDS011;4500;49.074;9.110;2023-04-24T06:47:16;1.13;;;1.10;;
8929;SDS011;4500;49.074;9.110;2023-04-24T06:49:43;0.60;;;0.60;;
8929;SDS011;4500;49.074;9.110;2023-04-24T06:52:11;0.70;;;0.70;;
8929;SDS011;4500;49.074;9.110;2023-04-24T06:54:41;0.60;;;0.60;;
8929;SDS011;4500;49.074;9.110;2023-04-24T06:57:09;0.70;;;0.70;;
8929;SDS011;4500;49.074;9.110;2023-04-24T06:59:38;0.70;;;0.70;;
8929;SDS011;4500;49.074;9.110;2023-04-24T07:02:06;0.80;;;0.80;;
8929;SDS011;4500;49.074;9.110;2023-04-24T07:04:33;0.90;;;0.90;;
8929;SDS011;4500;49.074;9.110;2023-04-24T07:07:02;2.07;;;1.97;;
8929;SDS011;4500;49.074;9.110;2023-04-24T07:09:29;2.17;;;2.07;;
8929;SDS011;4500;49.074;9.110;2023-04-24T07:11:57;2.50;;;2.40;;
8929;SDS011;4500;49.074;9.110;2023-04-24T07:14:24;3.13;;;3.03;;
8929;SDS011;4500;49.074;9.110;2023-04-24T07:16:52;3.17;;;3.07;;
8929;SDS011;4500;49.074;9.110;2023-04-24T07:19:19;2.67;;;2.57;;
8929;SDS011;4500;49.074;9.110;2023-04-24T07:21:47;1.53;;;1.43;;
8929;SDS011;4500;49.074;9.110;2023-04-24T07:24:15;1.17;;;1.13;;
8929;SDS011;4500;49.074;9.110;2023-04-24T07:26:42;0.60;;;0.60;;
8929;SDS011;4500;49.074;9.110;2023-04-24T07:29:10;0.70;;;0.70;;
8929;SDS011;4500;49.074;9.110;2023-04-24T07:31:38;0.70;;;0.70;;
8929;SDS011;4500;49.074;9.110;2023-04-24T07:34:07;0.60;;;0.60;;
8929;SDS011;4500;49.074;9.110;2023-04-24T07:36:35;0.70;;;0.70;;
8929;SDS011;4500;49.074;9.110;2023-04-24T07:39:05;0.90;;;0.90;;
8929;SDS011;4500;49.074;9.110;2023-04-24T07:41:32;1.47;;;1.47;;
8929;SDS011;4500;49.074;9.110;2023-04-24T07:44:00;2.90;;;2.80;;
8929;SDS011;4500;49.074;9.110;2023-04-24T07:46:27;2.63;;;2.53;;
8929;SDS011;4500;49.074;9.110;2023-04-24T07:48:57;2.30;;;2.20;;
8929;SDS011;4500;49.074;9.110;2023-04-24T07:51:39;0.80;;;0.80;;
8929;SDS011;4500;49.074;9.110;2023-04-24T07:54:08;0.80;;;0.80;;
8929;SDS011;4500;49.074;9.110;2023-04-24T07:56:36;0.70;;;0.70;;
8929;SDS011;4500;49.074;9.110;2023-04-24T07:59:05;0.90;;;0.90;;
8929;SDS011;4500;49.074;9.110;2023-04-24T08:01:33;1.07;;;1.07;;
8929;SDS011;4500;49.074;9.110;2023-04-24T08:04:01;2.83;;;2.73;;
8929;SDS011;4500;49.074;9.110;2023-04-24T08:06:29;2.60;;;2.50;;
8929;SDS011;4500;49.074;9.110;2023-04-24T08:08:57;2.30;;;2.20;;
8929;SDS011;4500;49.074;9.110;2023-04-24T08:11:25;2.50;;;2.40;;
8929;SDS011;4500;49.074;9.110;2023-04-24T08:13:53;2.37;;;2.27;;
8929;SDS011;4500;49.074;9.110;2023-04-24T08:16:21;4.90;;;4.70;;
8929;SDS011;4500;49.074;9.110;2023-04-24T08:18:50;1.83;;;1.73;;
8929;SDS011;4500;49.074;9.110;2023-04-24T08:21:18;2.20;;;2.10;;
8929;SDS011;4500;49.074;9.110;2023-04-24T08:23:47;1.00;;;1.00;;
8929;SDS011;4500;49.074;9.110;2023-04-24T08:26:14;0.90;;;0.90;;
8929;SDS011;4500;49.074;9.110;2023-04-24T08:28:42;0.90;;;0.87;;
8929;SDS011;4500;49.074;9.110;2023-04-24T08:31:10;0.63;;;0.63;;
8929;SDS011;4500;49.074;9.110;2023-04-24T08:33:38;0.70;;;0.70;;
8929;SDS011;4500;49.074;9.110;2023-04-24T08:36:07;0.80;;;0.80;;
8929;SDS011;4500;49.074;9.110;2023-04-24T08:38:35;0.60;;;0.60;;
8929;SDS011;4500;49.074;9.110;2023-04-24T08:41:02;1.13;;;1.13;;
8929;SDS011;4500;49.074;9.110;2023-04-24T08:43:31;2.20;;;2.10;;
8929;SDS011;4500;49.074;9.110;2023-04-24T08:46:01;2.40;;;2.30;;
8929;SDS011;4500;49.074;9.110;2023-04-24T08:48:33;0.80;;;0.80;;
8929;SDS011;4500;49.074;9.110;2023-04-24T08:51:01;2.40;;;2.30;;
8929;SDS011;4500;49.074;9.110;2023-04-24T08:53:30;2.60;;;2.50;;
8929;SDS011;4500;49.074;9.110;2023-04-24T08:55:57;2.60;;;2.50;;
8929;SDS011;4500;49.074;9.110;2023-04-24T08:58:25;2.60;;;2.50;;
8929;SDS011;4500;49.074;9.110;2023-04-24T09:00:56;2.50;;;2.40;;
8929;SDS011;4500;49.074;9.110;2023-04-24T09:03:25;2.80;;;2.70;;
8929;SDS011;4500;49.074;9.110;2023-04-24T09:05:54;3.33;;;3.23;;
8929;SDS011;4500;49.074;9.110;2023-04-24T09:08:24;3.00;;;2.90;;
8929;SDS011;4500;49.074;9.110;2023-04-24T09:10:52;2.70;;;2.60;;
8929;SDS011;4500;49.074;9.110;2023-04-24T09:13:20;1.93;;;1.83;;
8929;SDS011;4500;49.074;9.110;2023-04-24T09:15:47;1.87;;;1.77;;
8929;SDS011;4500;49.074;9.110;2023-04-24T09:18:15;1.00;;;1.00;;
8929;SDS011;4500;49.074;9.110;2023-04-24T09:23:30;2.40;;;2.30;;
8929;SDS011;4500;49.074;9.110;2023-04-24T09:25:59;2.60;;;2.50;;
8929;SDS011;4500;49.074;9.110;2023-04-24T09:28:31;2.50;;;2.40;;
8929;SDS011;4500;49.074;9.110;2023-04-24T09:31:15;2.60;;;2.50;;
8929;SDS011;4500;49.074;9.110;2023-04-24T09:33:56;1.00;;;1.00;;
8929;SDS011;4500;49.074;9.110;2023-04-24T09:36:33;1.30;;;1.30;;
8929;SDS011;4500;49.074;9.110;2023-04-24T09:39:05;0.80;;;0.80;;
8929;SDS011;4500;49.074;9.110;2023-04-24T09:41:59;0.60;;;0.60;;
8929;SDS011;4500;49.074;9.110;2023-04-24T09:44:27;2.60;;;2.50;;
8929;SDS011;4500;49.074;9.110;2023-04-24T09:46:59;2.30;;;2.20;;
8929;SDS011;4500;49.074;9.110;2023-04-24T09:49:28;2.40;;;2.30;;
8929;SDS011;4500;49.074;9.110;2023-04-24T09:52:03;2.20;;;2.10;;
8929;SDS011;4500;49.074;9.110;2023-04-24T09:54:31;2.13;;;2.03;;
8929;SDS011;4500;49.074;9.110;2023-04-24T09:56:58;2.13;;;2.03;;
8929;SDS011;4500;49.074;9.110;2023-04-24T09:59:29;2.30;;;2.20;;
8929;SDS011;4500;49.074;9.110;2023-04-24T10:01:57;2.17;;;2.07;;
8929;SDS011;4500;49.074;9.110;2023-04-24T10:04:27;3.27;;;3.07;;
8929;SDS011;4500;49.074;9.110;2023-04-24T10:06:56;2.07;;;1.97;;
8929;SDS011;4500;49.074;9.110;2023-04-24T10:09:26;3.43;;;3.33;;
8929;SDS011;4500;49.074;9.110;2023-04-24T10:11:54;2.70;;;2.60;;
8929;SDS011;4500;49.074;9.110;2023-04-24T10:14:23;2.50;;;2.40;;
8929;SDS011;4500;49.074;9.110;2023-04-24T10:16:54;2.93;;;2.83;;
8929;SDS011;4500;49.074;9.110;2023-04-24T10:19:25;2.47;;;2.37;;
8929;SDS011;4500;49.074;9.110;2023-04-24T10:21:53;2.13;;;2.03;;
8929;SDS011;4500;49.074;9.110;2023-04-24T10:24:22;3.60;;;3.43;;
8929;SDS011;4500;49.074;9.110;2023-04-24T10:26:50;1.93;;;1.83;;
8929;SDS011;4500;49.074;9.110;2023-04-24T10:29:17;1.23;;;1.20;;
8929;SDS011;4500;49.074;9.110;2023-04-24T10:31:45;1.30;;;1.27;;
8929;SDS011;4500;49.074;9.110;2023-04-24T10:34:14;0.90;;;0.90;;
8929;SDS011;4500;49.074;9.110;2023-04-24T10:36:46;0.80;;;0.80;;
8929;SDS011;4500;49.074;9.110;2023-04-24T10:39:21;2.30;;;2.20;;
8929;SDS011;4500;49.074;9.110;2023-04-24T10:41:54;2.60;;;2.50;;
8929;SDS011;4500;49.074;9.110;2023-04-24T10:44:24;3.23;;;3.13;;
8929;SDS011;4500;49.074;9.110;2023-04-24T10:46:54;2.93;;;2.83;;
8929;SDS011;4500;49.074;9.110;2023-04-24T10:49:29;2.93;;;2.83;;
8929;SDS011;4500;49.074;9.110;2023-04-24T10:52:01;2.50;;;2.40;;
8929;SDS011;4500;49.074;9.110;2023-04-24T10:54:36;1.57;;;1.53;;
8929;SDS011;4500;49.074;9.110;2023-04-24T10:59:50;2.27;;;2.17;;
8929;SDS011;4500;49.074;9.110;2023-04-24T11:02:23;2.40;;;2.30;;
8929;SDS011;4500;49.074;9.110;2023-04-24T11:05:03;1.23;;;1.23;;
8929;SDS011;4500;49.074;9.110;2023-04-24T11:10:45;0.87;;;0.87;;
8929;SDS011;4500;49.074;9.110;2023-04-24T11:13:15;0.80;;;0.80;;
8929;SDS011;4500;49.074;9.110;2023-04-24T11:15:43;0.63;;;0.63;;
8929;SDS011;4500;49.074;9.110;2023-04-24T11:18:14;1.13;;;1.13;;
8929;SDS011;4500;49.074;9.110;2023-04-24T11:20:43;0.70;;;0.70;;
8929;SDS011;4500;49.074;9.110;2023-04-24T11:23:12;1.13;;;1.13;;
8929;SDS011;4500;49.074;9.110;2023-04-24T11:25:41;0.70;;;0.70;;
8929;SDS011;4500;49.074;9.110;2023-04-24T11:28:14;0.77;;;0.77;;
8929;SDS011;4500;49.074;9.110;2023-04-24T11:30:43;0.70;;;0.70;;
8929;SDS011;4500;49.074;9.110;2023-04-24T11:33:10;0.70;;;0.70;;
8929;SDS011;4500;49.074;9.110;2023-04-24T11:35:41;0.50;;;0.50;;
8929;SDS011;4500;49.074;9.110;2023-04-24T11:38:11;0.60;;;0.60;;
8929;SDS011;4500;49.074;9.110;2023-04-24T11:40:51;1.30;;;1.30;;
8929;SDS011;4500;49.074;9.110;2023-04-24T11:43:18;2.80;;;2.70;;
8929;SDS011;4500;49.074;9.110;2023-04-24T11:45:50;1.13;;;1.10;;
8929;SDS011;4500;49.074;9.110;2023-04-24T11:48:20;1.30;;;1.27;;
8929;SDS011;4500;49.074;9.110;2023-04-24T11:50:49;2.47;;;2.37;;
8929;SDS011;4500;49.074;9.110;2023-04-24T11:53:18;1.23;;;1.20;;
8929;SDS011;4500;49.074;9.110;2023-04-24T11:55:48;2.23;;;2.13;;
8929;SDS011;4500;49.074;9.110;2023-04-24T11:58:16;1.60;;;1.53;;
8929;SDS011;4500;49.074;9.110;2023-04-24T12:00:54;1.87;;;1.77;;
8929;SDS011;4500;49.074;9.110;2023-04-24T12:03:24;2.80;;;2.70;;
8929;SDS011;4500;49.074;9.110;2023-04-24T12:05:52;3.13;;;3.03;;
8929;SDS011;4500;49.074;9.110;2023-04-24T12:08:29;1.90;;;1.80;;
8929;SDS011;4500;49.074;9.110;2023-04-24T12:10:56;2.40;;;2.30;;
8929;SDS011;4500;49.074;9.110;2023-04-24T12:13:26;2.40;;;2.30;;
8929;SDS011;4500;49.074;9.110;2023-04-24T12:15:54;2.40;;;2.30;;
8929;SDS011;4500;49.074;9.110;2023-04-24T12:18:22;2.00;;;1.90;;
8929;SDS011;4500;49.074;9.110;2023-04-24T12:20:50;1.77;;;1.67;;
8929;SDS011;4500;49.074;9.110;2023-04-24T12:23:39;1.53;;;1.50;;
8929;SDS011;4500;49.074;9.110;2023-04-24T12:26:05;0.70;;;0.70;;
8929;SDS011;4500;49.074;9.110;2023-04-24T12:28:37;1.23;;;1.23;;
8929;SDS011;4500;49.074;9.110;2023-04-24T12:31:06;0.80;;;0.80;;
8929;SDS011;4500;49.074;9.110;2023-04-24T12:33:34;0.90;;;0.90;;
8929;SDS011;4500;49.074;9.110;2023-04-24T12:36:03;1.33;;;1.33;;
8929;SDS011;4500;49.074;9.110;2023-04-24T12:38:32;1.90;;;1.80;;
8929;SDS011;4500;49.074;9.110;2023-04-24T12:41:10;0.70;;;0.70;;
8929;SDS011;4500;49.074;9.110;2023-04-24T12:43:50;0.70;;;0.70;;
8929;SDS011;4500;49.074;9.110;2023-04-24T12:46:18;2.40;;;2.30;;
8929;SDS011;4500;49.074;9.110;2023-04-24T12:48:48;1.63;;;1.53;;
8929;SDS011;4500;49.074;9.110;2023-04-24T12:51:15;1.10;;;1.07;;
8929;SDS011;4500;49.074;9.110;2023-04-24T12:53:43;0.60;;;0.60;;
8929;SDS011;4500;49.074;9.110;2023-04-24T12:56:10;0.77;;;0.77;;
8929;SDS011;4500;49.074;9.110;2023-04-24T12:58:38;0.60;;;0.60;;
8929;SDS011;4500;49.074;9.110;2023-04-24T13:01:06;0.70;;;0.70;;
8929;SDS011;4500;49.074;9.110;2023-04-24T13:03:34;0.90;;;0.90;;
8929;SDS011;4500;49.074;9.110;2023-04-24T13:06:02;1.83;;;1.73;;
8929;SDS011;4500;49.074;9.110;2023-04-24T13:08:30;2.30;;;2.20;;
8929;SDS011;4500;49.074;9.110;2023-04-24T13:10:57;2.20;;;2.10;;
8929;SDS011;4500;49.074;9.110;2023-04-24T13:13:25;2.70;;;2.60;;
8929;SDS011;4500;49.074;9.110;2023-04-24T13:15:52;2.13;;;2.03;;
8929;SDS011;4500;49.074;9.110;2023-04-24T13:18:20;1.43;;;1.43;;
8929;SDS011;4500;49.074;9.110;2023-04-24T13:20:48;1.87;;;1.77;;
8929;SDS011;4500;49.074;9.110;2023-04-24T13:23:16;1.17;;;1.13;;
8929;SDS011;4500;49.074;9.110;2023-04-24T13:25:44;0.60;;;0.60;;
8929;SDS011;4500;49.074;9.110;2023-04-24T13:28:12;0.87;;;0.87;;
8929;SDS011;4500;49.074;9.110;2023-04-24T13:30:41;0.60;;;0.60;;
8929;SDS011;4500;49.074;9.110;2023-04-24T13:33:09;0.53;;;0.53;;
8929;SDS011;4500;49.074;9.110;2023-04-24T13:35:37;0.77;;;0.77;;
8929;SDS011;4500;49.074;9.110;2023-04-24T13:38:04;0.80;;;0.80;;
8929;SDS011;4500;49.074;9.110;2023-04-24T13:40:35;0.60;;;0.60;;
8929;SDS011;4500;49.074;9.110;2023-04-24T13:43:03;0.93;;;0.93;;
8929;SDS011;4500;49.074;9.110;2023-04-24T13:45:31;1.83;;;1.73;;
8929;SDS011;4500;49.074;9.110;2023-04-24T13:47:59;2.30;;;2.20;;
8929;SDS011;4500;49.074;9.110;2023-04-24T13:50:26;2.20;;;2.10;;
8929;SDS011;4500;49.074;9.110;2023-04-24T13:52:54;2.60;;;2.50;;
8929;SDS011;4500;49.074;9.110;2023-04-24T13:55:24;2.70;;;2.60;;
8929;SDS011;4500;49.074;9.110;2023-04-24T13:57:52;2.40;;;2.30;;
8929;SDS011;4500;49.074;9.110;2023-04-24T14:00:21;3.00;;;2.90;;
8929;SDS011;4500;49.074;9.110;2023-04-24T14:02:49;2.67;;;2.57;;
8929;SDS011;4500;49.074;9.110;2023-04-24T14:05:17;1.20;;;1.20;;
8929;SDS011;4500;49.074;9.110;2023-04-24T14:07:45;1.07;;;1.07;;
8929;SDS011;4500;49.074;9.110;2023-04-24T14:10:13;0.60;;;0.60;;
8929;SDS011;4500;49.074;9.110;2023-04-24T14:12:41;0.90;;;0.90;;
8929;SDS011;4500;49.074;9.110;2023-04-24T14:15:12;0.80;;;0.80;;
8929;SDS011;4500;49.074;9.110;2023-04-24T14:17:40;0.80;;;0.80;;
8929;SDS011;4500;49.074;9.110;2023-04-24T14:20:09;0.90;;;0.90;;
8929;SDS011;4500;49.074;9.110;2023-04-24T14:22:39;0.80;;;0.80;;
8929;SDS011;4500;49.074;9.110;2023-04-24T14:25:09;0.70;;;0.70;;
8929;SDS011;4500;49.074;9.110;2023-04-24T14:27:36;0.80;;;0.80;;
8929;SDS011;4500;49.074;9.110;2023-04-24T14:30:04;0.80;;;0.80;;
8929;SDS011;4500;49.074;9.110;2023-04-24T14:32:32;1.60;;;1.60;;
8929;SDS011;4500;49.074;9.110;2023-04-24T14:35:00;2.03;;;1.93;;
8929;SDS011;4500;49.074;9.110;2023-04-24T14:37:27;2.20;;;2.10;;
8929;SDS011;4500;49.074;9.110;2023-04-24T14:39:55;2.50;;;2.40;;
8929;SDS011;4500;49.074;9.110;2023-04-24T14:42:43;0.80;;;0.80;;
8929;SDS011;4500;49.074;9.110;2023-04-24T14:45:11;0.67;;;0.67;;
8929;SDS011;4500;49.074;9.110;2023-04-24T14:47:40;0.70;;;0.70;;
8929;SDS011;4500;49.074;9.110;2023-04-24T14:50:09;0.73;;;0.73;;
8929;SDS011;4500;49.074;9.110;2023-04-24T14:52:36;0.73;;;0.73;;
8929;SDS011;4500;49.074;9.110;2023-04-24T14:55:04;0.90;;;0.90;;
8929;SDS011;4500;49.074;9.110;2023-04-24T14:57:33;1.20;;;1.20;;
8929;SDS011;4500;49.074;9.110;2023-04-24T15:00:03;1.30;;;1.30;;
8929;SDS011;4500;49.074;9.110;2023-04-24T15:02:32;1.17;;;1.17;;
8929;SDS011;4500;49.074;9.110;2023-04-24T15:05:01;2.20;;;2.10;;
8929;SDS011;4500;49.074;9.110;2023-04-24T15:07:29;2.40;;;2.30;;
8929;SDS011;4500;49.074;9.110;2023-04-24T15:09:57;1.93;;;1.83;;
8929;SDS011;4500;49.074;9.110;2023-04-24T15:12:25;2.93;;;2.83;;
8929;SDS011;4500;49.074;9.110;2023-04-24T15:14:52;8.90;;;4.20;;
8929;SDS011;4500;49.074;9.110;2023-04-24T15:17:20;1.63;;;1.53;;
8929;SDS011;4500;49.074;9.110;2023-04-24T15:19:47;0.93;;;0.93;;
8929;SDS011;4500;49.074;9.110;2023-04-24T15:22:15;0.83;;;0.83;;
8929;SDS011;4500;49.074;9.110;2023-04-24T15:24:43;0.63;;;0.63;;
8929;SDS011;4500;49.074;9.110;2023-04-24T15:27:13;0.70;;;0.70;;
8929;SDS011;4500;49.074;9.110;2023-04-24T15:29:58;2.30;;;2.20;;
8929;SDS011;4500;49.074;9.110;2023-04-24T15:32:48;0.90;;;0.90;;
8929;SDS011;4500;49.074;9.110;2023-04-24T15:35:21;1.50;;;1.50;;